Calgary International Airport
CYYC : rendu visible

Aérodrome :











RETROUVEZ-NOUS SUR...

 
LOGIN :

S'inscrire | Disclaimer

   EN    FR    IT 

 









Légende :    VFR   VFR Marginal   IFR   IFR Intensif   IFR Très Intensif
Visi : 
Plafond : 
>= 8 km
>= 3000ft
5 à 8 km
1000 à 3000 ft
1500m à 5 km
500 à 1000 ft
800 à 1500m
200 à 500 ft
< 800m
< 200 ft
Symboles :   Orages  Brouillard  Fortes neiges  Fortes précipitations  Vent > 20 kt






- Altitude de l'aérodrome : 3557 ft
- Code IATA : YYC


CYYC - Calgary International

DERNIER METAR :
  • 312051Z 31009G20KT 300V010 15SM TS SCT012CB OVC074 19/10 A2949 RMK CB3AC5 SLP979 DENSITY ALT 5400FT

METARs EXPIRÉS :
  • 312000Z 35012KT 40SM FEW060 BKN075 OVC120 19/14 A2950 RMK SC2AC5AC1 SLP981 DENSITY ALT 5400FT
  • 311900Z VRB02KT 40SM -SHRA SCT050 BKN090 BKN120 18/13 A2949 RMK SC4AC2AC1 PRESFR SLP980 DENSITY ALT 5400FT
  • 311853Z VRB02KT 40SM -SHRA SCT030 BKN090 BKN120 18/13 A2950 RMK SC4AC3AC1 PRESFR SLP982 DENSITY ALT 5300FT
  • 311800Z 18007KT 40SM FEW060 BKN140 OVC180 17/13 A2954 RMK SC2AC4AC2 SLP997 DENSITY ALT 5100FT

TAF TAF CYYC
Valide du 31 à 21h jusqu'au 01 à 18h UTC


312038Z 3121/0118 35012KT P6SM SCT060 BKN080
TEMPO 3121/0103 VRB30G40KT 2SM +TSRA BKN050CB
BECMG 3122/3124 29012KT
FM010300 27012KT P6SM SCT080 BKN140 BKN220
FM010600 27008KT P6SM FEW080 FEW140 RMK NXT FCST BY 010000Z
FIR CZEG / Amérique du Nord



MET'MAP, la Météo Aéronautique d'un coup d'oeil ! - Copyright ORBIFLY Décembre 2007 - Disclaimer

ORBIFLY MET'MAP TEAM :

Programmation & Développement : Alexandra Zaïnal
Sur une idée originale de : Baudouin d'Aumeries
Assistance à la programmation : Marc-Olivier Méhu
Soutien technique & logistique : Manuel Goepfert

Contact : metmap@orbifly.com




SOURCES & CREDITS :

   NOAA       Earth
Advisory